sensor_id;sensor_type;location;lat;lon;timestamp;pressure;altitude;pressure_sealevel;temperature;humidity
61337;BME280;47212;41.326;2.104;2023-01-10T00:03:14;102231.88;;;12.82;45.89
61337;BME280;47212;41.326;2.104;2023-01-10T00:08:18;102251.50;;;12.79;46.75
61337;BME280;47212;41.326;2.104;2023-01-10T00:13:25;102249.84;;;12.77;46.03
61337;BME280;47212;41.326;2.104;2023-01-10T00:18:32;102250.56;;;12.73;46.18
61337;BME280;47212;41.326;2.104;2023-01-10T00:23:42;102255.19;;;12.72;45.98
61337;BME280;47212;41.326;2.104;2023-01-10T00:28:48;102251.28;;;12.68;46.23
61337;BME280;47212;41.326;2.104;2023-01-10T00:34:05;102230.97;;;12.64;46.49
61337;BME280;47212;41.326;2.104;2023-01-10T00:39:15;102254.84;;;12.57;46.64
61337;BME280;47212;41.326;2.104;2023-01-10T00:44:20;102266.84;;;12.56;46.39
61337;BME280;47212;41.326;2.104;2023-01-10T00:49:22;102291.91;;;12.53;46.42
61337;BME280;47212;41.326;2.104;2023-01-10T00:54:24;102290.72;;;12.49;46.99
61337;BME280;47212;41.326;2.104;2023-01-10T00:59:26;102302.94;;;12.47;46.76
61337;BME280;47212;41.326;2.104;2023-01-10T01:04:30;102310.53;;;12.44;46.92
61337;BME280;47212;41.326;2.104;2023-01-10T01:09:34;102299.84;;;12.43;47.54
61337;BME280;47212;41.326;2.104;2023-01-10T01:14:56;102293.44;;;12.37;47.46
61337;BME280;47212;41.326;2.104;2023-01-10T01:19:59;102297.00;;;12.38;47.08
61337;BME280;47212;41.326;2.104;2023-01-10T01:25:01;102296.41;;;12.36;47.37
61337;BME280;47212;41.326;2.104;2023-01-10T01:30:06;102286.44;;;12.30;47.78
61337;BME280;47212;41.326;2.104;2023-01-10T01:35:11;102288.22;;;12.24;47.59
61337;BME280;47212;41.326;2.104;2023-01-10T01:40:16;102291.66;;;12.20;48.28
61337;BME280;47212;41.326;2.104;2023-01-10T01:56:12;102284.94;;;12.04;48.50
61337;BME280;47212;41.326;2.104;2023-01-10T02:05:17;102356.00;;;11.97;49.23
61337;BME280;47212;41.326;2.104;2023-01-10T02:15:36;102342.91;;;11.88;49.13
61337;BME280;47212;41.326;2.104;2023-01-10T02:36:59;102348.16;;;11.71;50.38
61337;BME280;47212;41.326;2.104;2023-01-10T02:42:28;102363.09;;;11.68;50.09
61337;BME280;47212;41.326;2.104;2023-01-10T02:47:42;102375.31;;;11.66;50.02
61337;BME280;47212;41.326;2.104;2023-01-10T02:52:49;102384.16;;;11.61;49.85
61337;BME280;47212;41.326;2.104;2023-01-10T03:03:55;102384.88;;;11.38;51.56
61337;BME280;47212;41.326;2.104;2023-01-10T03:09:33;102386.84;;;11.31;52.07
61337;BME280;47212;41.326;2.104;2023-01-10T03:14:42;102403.19;;;11.31;50.91
61337;BME280;47212;41.326;2.104;2023-01-10T03:19:53;102417.47;;;11.27;51.12
61337;BME280;47212;41.326;2.104;2023-01-10T03:25:03;102409.16;;;11.22;51.97
61337;BME280;47212;41.326;2.104;2023-01-10T03:35:13;102416.84;;;11.06;52.00
61337;BME280;47212;41.326;2.104;2023-01-10T03:45:22;102409.03;;;10.92;52.10
61337;BME280;47212;41.326;2.104;2023-01-10T03:50:27;102403.66;;;10.85;51.86
61337;BME280;47212;41.326;2.104;2023-01-10T03:55:30;102395.81;;;10.70;52.03
61337;BME280;47212;41.326;2.104;2023-01-10T04:00:33;102391.31;;;10.58;52.72
61337;BME280;47212;41.326;2.104;2023-01-10T04:05:35;102399.81;;;10.43;53.05
61337;BME280;47212;41.326;2.104;2023-01-10T04:10:39;102400.28;;;10.33;53.04
61337;BME280;47212;41.326;2.104;2023-01-10T04:15:42;102411.22;;;10.27;53.30
61337;BME280;47212;41.326;2.104;2023-01-10T04:20:46;102414.97;;;10.26;53.31
61337;BME280;47212;41.326;2.104;2023-01-10T04:25:55;102399.88;;;10.30;53.36
61337;BME280;47212;41.326;2.104;2023-01-10T04:31:10;102409.94;;;10.29;53.49
61337;BME280;47212;41.326;2.104;2023-01-10T04:36:16;102418.31;;;10.28;53.34
61337;BME280;47212;41.326;2.104;2023-01-10T04:41:20;102415.44;;;10.23;53.12
61337;BME280;47212;41.326;2.104;2023-01-10T04:46:25;102431.75;;;10.16;53.58
61337;BME280;47212;41.326;2.104;2023-01-10T04:51:30;102431.38;;;10.12;54.09
61337;BME280;47212;41.326;2.104;2023-01-10T04:56:36;102417.13;;;10.10;53.92
61337;BME280;47212;41.326;2.104;2023-01-10T05:07:58;102441.63;;;10.10;53.69
61337;BME280;47212;41.326;2.104;2023-01-10T05:13:17;102438.47;;;10.13;53.72
61337;BME280;47212;41.326;2.104;2023-01-10T05:18:23;102456.47;;;10.14;53.75
61337;BME280;47212;41.326;2.104;2023-01-10T05:23:29;102444.97;;;10.12;53.71
61337;BME280;47212;41.326;2.104;2023-01-10T05:28:35;102450.00;;;10.09;53.70
61337;BME280;47212;41.326;2.104;2023-01-10T05:33:48;102459.88;;;10.03;54.18
61337;BME280;47212;41.326;2.104;2023-01-10T05:39:07;102472.44;;;10.04;54.02
61337;BME280;47212;41.326;2.104;2023-01-10T05:44:25;102485.00;;;9.99;54.14
61337;BME280;47212;41.326;2.104;2023-01-10T05:49:31;102503.66;;;9.95;54.34
61337;BME280;47212;41.326;2.104;2023-01-10T05:54:49;102514.75;;;9.94;54.58
61337;BME280;47212;41.326;2.104;2023-01-10T06:00:03;102525.84;;;9.92;54.60
61337;BME280;47212;41.326;2.104;2023-01-10T06:05:19;102519.16;;;9.88;54.31
61337;BME280;47212;41.326;2.104;2023-01-10T06:10:26;102522.31;;;9.85;54.23
61337;BME280;47212;41.326;2.104;2023-01-10T06:15:33;102526.91;;;9.84;55.14
61337;BME280;47212;41.326;2.104;2023-01-10T06:20:38;102525.03;;;9.85;54.90
61337;BME280;47212;41.326;2.104;2023-01-10T06:25:42;102516.03;;;9.84;55.00
61337;BME280;47212;41.326;2.104;2023-01-10T06:30:58;102512.66;;;9.89;54.77
61337;BME280;47212;41.326;2.104;2023-01-10T06:36:03;102507.41;;;9.94;54.76
61337;BME280;47212;41.326;2.104;2023-01-10T06:41:18;102526.03;;;9.97;54.77
61337;BME280;47212;41.326;2.104;2023-01-10T06:46:28;102525.59;;;10.00;54.62
61337;BME280;47212;41.326;2.104;2023-01-10T06:51:44;102534.41;;;9.96;54.68
61337;BME280;47212;41.326;2.104;2023-01-10T06:56:50;102533.38;;;9.90;54.53
61337;BME280;47212;41.326;2.104;2023-01-10T07:01:55;102518.53;;;9.86;54.79
61337;BME280;47212;41.326;2.104;2023-01-10T07:07:09;102519.41;;;9.80;55.19
61337;BME280;47212;41.326;2.104;2023-01-10T07:12:12;102530.09;;;9.75;55.10
61337;BME280;47212;41.326;2.104;2023-01-10T07:17:22;102534.06;;;9.72;55.45
61337;BME280;47212;41.326;2.104;2023-01-10T07:22:27;102560.84;;;9.75;55.27
61337;BME280;47212;41.326;2.104;2023-01-10T07:27:35;102576.72;;;9.78;55.33
61337;BME280;47212;41.326;2.104;2023-01-10T07:33:04;102590.94;;;9.80;55.45
61337;BME280;47212;41.326;2.104;2023-01-10T07:38:09;102601.59;;;9.82;55.42
61337;BME280;47212;41.326;2.104;2023-01-10T07:43:27;102593.03;;;9.85;55.44
61337;BME280;47212;41.326;2.104;2023-01-10T07:48:53;102608.91;;;9.88;55.51
61337;BME280;47212;41.326;2.104;2023-01-10T07:53:58;102599.72;;;9.89;55.20
61337;BME280;47212;41.326;2.104;2023-01-10T07:59:19;102614.56;;;9.93;55.44
61337;BME280;47212;41.326;2.104;2023-01-10T08:04:27;102621.03;;;9.99;55.59
61337;BME280;47212;41.326;2.104;2023-01-10T08:09:41;102629.41;;;10.04;55.52
61337;BME280;47212;41.326;2.104;2023-01-10T08:14:45;102650.91;;;10.18;55.07
61337;BME280;47212;41.326;2.104;2023-01-10T08:20:05;102645.50;;;14.52;46.63
61337;BME280;47212;41.326;2.104;2023-01-10T08:25:34;102632.22;;;18.54;39.08
61337;BME280;47212;41.326;2.104;2023-01-10T08:30:44;102629.84;;;20.30;36.12
61337;BME280;47212;41.326;2.104;2023-01-10T08:36:00;102640.91;;;20.95;35.03
61337;BME280;47212;41.326;2.104;2023-01-10T08:41:18;102647.94;;;21.26;33.37
61337;BME280;47212;41.326;2.104;2023-01-10T08:46:25;102648.13;;;21.35;33.64
61337;BME280;47212;41.326;2.104;2023-01-10T08:51:29;102655.13;;;20.73;34.74
61337;BME280;47212;41.326;2.104;2023-01-10T08:56:35;102663.00;;;20.46;34.98
61337;BME280;47212;41.326;2.104;2023-01-10T09:01:45;102658.03;;;20.38;35.36
61337;BME280;47212;41.326;2.104;2023-01-10T09:06:54;102650.91;;;20.11;34.88
61337;BME280;47212;41.326;2.104;2023-01-10T09:12:04;102664.19;;;19.94;34.84
61337;BME280;47212;41.326;2.104;2023-01-10T09:17:40;102690.75;;;19.64;35.78
61337;BME280;47212;41.326;2.104;2023-01-10T09:22:46;102694.56;;;19.33;37.28
61337;BME280;47212;41.326;2.104;2023-01-10T09:27:59;102689.50;;;18.99;36.44
61337;BME280;47212;41.326;2.104;2023-01-10T09:33:27;102687.84;;;18.98;36.48
61337;BME280;47212;41.326;2.104;2023-01-10T09:39:06;102686.75;;;19.04;36.16
61337;BME280;47212;41.326;2.104;2023-01-10T09:44:41;102697.09;;;18.67;37.12
61337;BME280;47212;41.326;2.104;2023-01-10T09:50:30;102704.53;;;18.19;37.45
61337;BME280;47212;41.326;2.104;2023-01-10T09:55:38;102702.41;;;17.62;39.62
61337;BME280;47212;41.326;2.104;2023-01-10T10:00:57;102694.00;;;17.20;40.00
61337;BME280;47212;41.326;2.104;2023-01-10T10:06:01;102669.66;;;17.07;40.36
61337;BME280;47212;41.326;2.104;2023-01-10T10:11:32;102682.88;;;17.10;40.74
61337;BME280;47212;41.326;2.104;2023-01-10T10:28:12;102693.25;;;17.30;39.42
61337;BME280;47212;41.326;2.104;2023-01-10T10:33:53;102700.44;;;17.58;39.04
61337;BME280;47212;41.326;2.104;2023-01-10T10:39:04;102708.03;;;17.72;40.12
61337;BME280;47212;41.326;2.104;2023-01-10T10:44:42;102697.03;;;17.72;38.91
61337;BME280;47212;41.326;2.104;2023-01-10T10:50:18;102698.38;;;17.70;38.59
61337;BME280;47212;41.326;2.104;2023-01-10T10:55:33;102674.31;;;17.92;39.24
61337;BME280;47212;41.326;2.104;2023-01-10T11:00:41;102677.19;;;18.12;39.12
61337;BME280;47212;41.326;2.104;2023-01-10T11:05:47;102658.88;;;18.33;38.87
61337;BME280;47212;41.326;2.104;2023-01-10T11:10:57;102645.88;;;18.29;39.54
61337;BME280;47212;41.326;2.104;2023-01-10T11:16:06;102643.94;;;18.24;38.83
61337;BME280;47212;41.326;2.104;2023-01-10T11:21:25;102642.38;;;18.43;39.51
61337;BME280;47212;41.326;2.104;2023-01-10T11:26:42;102633.44;;;18.89;37.58
61337;BME280;47212;41.326;2.104;2023-01-10T11:31:54;102618.56;;;18.90;38.49
61337;BME280;47212;41.326;2.104;2023-01-10T11:37:25;102624.94;;;19.05;37.47
61337;BME280;47212;41.326;2.104;2023-01-10T11:42:41;102637.13;;;19.35;38.14
61337;BME280;47212;41.326;2.104;2023-01-10T11:48:01;102632.72;;;19.49;36.65
61337;BME280;47212;41.326;2.104;2023-01-10T11:53:38;102608.13;;;19.73;35.99
61337;BME280;47212;41.326;2.104;2023-01-10T11:59:08;102610.63;;;19.75;36.36
61337;BME280;47212;41.326;2.104;2023-01-10T12:04:18;102612.81;;;19.78;37.73
61337;BME280;47212;41.326;2.104;2023-01-10T12:10:17;102597.31;;;19.97;36.31
61337;BME280;47212;41.326;2.104;2023-01-10T12:15:32;102588.97;;;20.17;35.58
61337;BME280;47212;41.326;2.104;2023-01-10T12:20:49;102572.34;;;20.22;36.28
61337;BME280;47212;41.326;2.104;2023-01-10T12:25:59;102566.88;;;20.12;36.03
61337;BME280;47212;41.326;2.104;2023-01-10T12:31:15;102561.25;;;20.32;36.46
61337;BME280;47212;41.326;2.104;2023-01-10T12:53:48;102537.19;;;20.33;34.95
61337;BME280;47212;41.326;2.104;2023-01-10T12:58:57;102522.22;;;20.44;35.32
61337;BME280;47212;41.326;2.104;2023-01-10T13:04:09;102515.69;;;20.69;34.65
61337;BME280;47212;41.326;2.104;2023-01-10T13:09:25;102509.94;;;20.60;34.98
61337;BME280;47212;41.326;2.104;2023-01-10T13:14:38;102515.19;;;20.62;34.45
61337;BME280;47212;41.326;2.104;2023-01-10T13:25:42;102501.47;;;20.86;32.87
61337;BME280;47212;41.326;2.104;2023-01-10T13:31:01;102497.38;;;20.73;34.08
61337;BME280;47212;41.326;2.104;2023-01-10T13:36:25;102489.09;;;20.73;33.89
61337;BME280;47212;41.326;2.104;2023-01-10T13:58:41;102477.75;;;19.61;35.61
61337;BME280;47212;41.326;2.104;2023-01-10T14:04:03;102469.53;;;19.25;36.98
61337;BME280;47212;41.326;2.104;2023-01-10T14:09:29;102467.34;;;19.02;36.89
61337;BME280;47212;41.326;2.104;2023-01-10T14:14:56;102453.81;;;18.75;37.55
61337;BME280;47212;41.326;2.104;2023-01-10T14:20:15;102453.81;;;18.65;37.79
61337;BME280;47212;41.326;2.104;2023-01-10T14:25:36;102459.88;;;18.72;37.82
61337;BME280;47212;41.326;2.104;2023-01-10T14:31:12;102459.03;;;18.56;37.50
61337;BME280;47212;41.326;2.104;2023-01-10T14:42:01;102466.63;;;18.13;36.56
61337;BME280;47212;41.326;2.104;2023-01-10T14:47:52;102466.81;;;17.87;35.73
61337;BME280;47212;41.326;2.104;2023-01-10T14:53:01;102464.53;;;17.68;36.63
61337;BME280;47212;41.326;2.104;2023-01-10T14:58:16;102455.63;;;17.51;36.83
61337;BME280;47212;41.326;2.104;2023-01-10T15:03:23;102462.38;;;17.33;37.19
61337;BME280;47212;41.326;2.104;2023-01-10T15:08:32;102452.34;;;17.17;37.95
61337;BME280;47212;41.326;2.104;2023-01-10T15:13:47;102445.44;;;17.09;37.84
61337;BME280;47212;41.326;2.104;2023-01-10T15:19:04;102437.09;;;16.99;38.96
61337;BME280;47212;41.326;2.104;2023-01-10T15:24:35;102438.09;;;16.83;39.08
61337;BME280;47212;41.326;2.104;2023-01-10T15:29:58;102432.94;;;16.65;39.46
61337;BME280;47212;41.326;2.104;2023-01-10T15:35:31;102441.38;;;16.53;39.74
61337;BME280;47212;41.326;2.104;2023-01-10T15:40:38;102442.66;;;16.45;39.75
61337;BME280;47212;41.326;2.104;2023-01-10T15:45:45;102431.56;;;16.35;40.28
61337;BME280;47212;41.326;2.104;2023-01-10T15:51:34;102446.59;;;16.28;40.41
61337;BME280;47212;41.326;2.104;2023-01-10T15:57:25;102441.06;;;16.22;40.83
61337;BME280;47212;41.326;2.104;2023-01-10T16:02:46;102420.88;;;16.12;41.26
61337;BME280;47212;41.326;2.104;2023-01-10T16:07:54;102424.16;;;16.09;41.52
61337;BME280;47212;41.326;2.104;2023-01-10T16:13:09;102427.34;;;16.01;42.09
61337;BME280;47212;41.326;2.104;2023-01-10T16:18:40;102439.25;;;15.84;42.62
61337;BME280;47212;41.326;2.104;2023-01-10T16:23:52;102443.66;;;15.64;43.47
61337;BME280;47212;41.326;2.104;2023-01-10T16:28:56;102450.22;;;15.46;44.23
61337;BME280;47212;41.326;2.104;2023-01-10T16:34:02;102444.53;;;15.30;44.53
61337;BME280;47212;41.326;2.104;2023-01-10T16:39:15;102458.03;;;15.15;46.09
61337;BME280;47212;41.326;2.104;2023-01-10T16:44:22;102456.34;;;15.14;45.63
61337;BME280;47212;41.326;2.104;2023-01-10T16:49:25;102456.88;;;15.11;46.04
61337;BME280;47212;41.326;2.104;2023-01-10T16:54:45;102455.69;;;15.07;46.87
61337;BME280;47212;41.326;2.104;2023-01-10T16:59:52;102457.72;;;14.95;47.14
61337;BME280;47212;41.326;2.104;2023-01-10T17:04:54;102458.38;;;14.85;47.76
61337;BME280;47212;41.326;2.104;2023-01-10T17:10:10;102461.16;;;14.74;48.02
61337;BME280;47212;41.326;2.104;2023-01-10T17:15:17;102469.78;;;14.65;48.92
61337;BME280;47212;41.326;2.104;2023-01-10T17:20:22;102481.75;;;14.59;48.96
61337;BME280;47212;41.326;2.104;2023-01-10T17:25:27;102487.72;;;14.56;49.62
61337;BME280;47212;41.326;2.104;2023-01-10T17:30:34;102495.34;;;14.54;49.97
61337;BME280;47212;41.326;2.104;2023-01-10T17:35:43;102511.22;;;14.52;49.92
61337;BME280;47212;41.326;2.104;2023-01-10T17:40:48;102519.34;;;14.47;50.38
61337;BME280;47212;41.326;2.104;2023-01-10T17:46:02;102512.78;;;14.48;50.83
61337;BME280;47212;41.326;2.104;2023-01-10T17:51:08;102517.69;;;14.46;50.74
61337;BME280;47212;41.326;2.104;2023-01-10T17:56:20;102519.84;;;14.44;50.57
61337;BME280;47212;41.326;2.104;2023-01-10T18:01:28;102523.66;;;14.43;50.70
61337;BME280;47212;41.326;2.104;2023-01-10T18:06:41;102516.72;;;14.41;50.87
61337;BME280;47212;41.326;2.104;2023-01-10T18:11:48;102512.22;;;14.34;51.24
61337;BME280;47212;41.326;2.104;2023-01-10T18:17:00;102525.56;;;14.31;51.49
61337;BME280;47212;41.326;2.104;2023-01-10T18:22:05;102529.38;;;14.30;51.94
61337;BME280;47212;41.326;2.104;2023-01-10T18:27:31;102520.47;;;14.23;51.66
61337;BME280;47212;41.326;2.104;2023-01-10T18:32:38;102533.59;;;14.21;51.78
61337;BME280;47212;41.326;2.104;2023-01-10T18:37:45;102540.88;;;14.15;52.35
61337;BME280;47212;41.326;2.104;2023-01-10T18:42:52;102527.91;;;14.11;51.85
61337;BME280;47212;41.326;2.104;2023-01-10T18:47:55;102526.47;;;14.08;52.25
61337;BME280;47212;41.326;2.104;2023-01-10T18:53:02;102524.88;;;13.72;54.30
61337;BME280;47212;41.326;2.104;2023-01-10T18:58:05;102512.44;;;12.99;56.05
61337;BME280;47212;41.326;2.104;2023-01-10T19:03:09;102513.25;;;12.88;54.58
61337;BME280;47212;41.326;2.104;2023-01-10T19:08:14;102526.50;;;13.03;54.83
61337;BME280;47212;41.326;2.104;2023-01-10T19:13:16;102526.91;;;13.18;55.08
61337;BME280;47212;41.326;2.104;2023-01-10T19:18:17;102525.25;;;13.29;54.68
61337;BME280;47212;41.326;2.104;2023-01-10T19:23:19;102531.44;;;13.36;54.20
61337;BME280;47212;41.326;2.104;2023-01-10T19:28:22;102533.44;;;13.41;54.20
61337;BME280;47212;41.326;2.104;2023-01-10T19:33:26;102532.72;;;13.45;54.63
61337;BME280;47212;41.326;2.104;2023-01-10T19:38:30;102528.69;;;13.48;54.66
61337;BME280;47212;41.326;2.104;2023-01-10T19:43:37;102534.16;;;13.48;54.93
61337;BME280;47212;41.326;2.104;2023-01-10T19:48:47;102528.69;;;13.48;54.74
61337;BME280;47212;41.326;2.104;2023-01-10T19:53:54;102525.59;;;13.44;54.88
61337;BME280;47212;41.326;2.104;2023-01-10T19:58:57;102528.69;;;13.36;55.12
61337;BME280;47212;41.326;2.104;2023-01-10T20:04:08;102521.78;;;13.33;55.58
61337;BME280;47212;41.326;2.104;2023-01-10T20:09:15;102520.00;;;13.27;55.43
61337;BME280;47212;41.326;2.104;2023-01-10T20:14:21;102514.50;;;13.04;56.54
61337;BME280;47212;41.326;2.104;2023-01-10T20:19:24;102526.25;;;12.33;56.99
61337;BME280;47212;41.326;2.104;2023-01-10T20:24:40;102522.78;;;12.07;57.03
61337;BME280;47212;41.326;2.104;2023-01-10T20:29:47;102513.22;;;11.98;57.82
61337;BME280;47212;41.326;2.104;2023-01-10T20:34:52;102516.84;;;12.10;57.64
61337;BME280;47212;41.326;2.104;2023-01-10T20:39:56;102527.03;;;12.22;57.46
61337;BME280;47212;41.326;2.104;2023-01-10T20:45:08;102522.09;;;12.30;59.56
61337;BME280;47212;41.326;2.104;2023-01-10T20:50:14;102508.50;;;11.69;59.63
61337;BME280;47212;41.326;2.104;2023-01-10T20:55:25;102506.81;;;11.49;59.26
61337;BME280;47212;41.326;2.104;2023-01-10T21:00:39;102494.41;;;11.54;59.35
61337;BME280;47212;41.326;2.104;2023-01-10T21:05:49;102484.25;;;11.61;59.62
61337;BME280;47212;41.326;2.104;2023-01-10T21:10:55;102478.03;;;11.72;59.17
61337;BME280;47212;41.326;2.104;2023-01-10T21:16:02;102464.97;;;11.80;59.28
61337;BME280;47212;41.326;2.104;2023-01-10T21:21:22;102464.72;;;11.82;59.85
61337;BME280;47212;41.326;2.104;2023-01-10T21:26:37;102473.53;;;11.84;59.61
61337;BME280;47212;41.326;2.104;2023-01-10T21:31:42;102461.81;;;11.77;59.27
61337;BME280;47212;41.326;2.104;2023-01-10T21:36:46;102471.97;;;11.70;59.73
61337;BME280;47212;41.326;2.104;2023-01-10T21:42:00;102473.34;;;11.61;60.46
61337;BME280;47212;41.326;2.104;2023-01-10T21:47:39;102468.41;;;11.51;61.29
61337;BME280;47212;41.326;2.104;2023-01-10T21:52:56;102471.22;;;11.44;61.24
61337;BME280;47212;41.326;2.104;2023-01-10T21:58:12;102469.41;;;11.38;60.85
61337;BME280;47212;41.326;2.104;2023-01-10T22:03:25;102465.69;;;11.33;61.08
61337;BME280;47212;41.326;2.104;2023-01-10T22:08:42;102468.44;;;11.26;60.99
61337;BME280;47212;41.326;2.104;2023-01-10T22:13:54;102458.59;;;11.25;60.82
61337;BME280;47212;41.326;2.104;2023-01-10T22:19:04;102454.44;;;11.23;59.89
61337;BME280;47212;41.326;2.104;2023-01-10T22:24:33;102450.88;;;11.22;60.52
61337;BME280;47212;41.326;2.104;2023-01-10T22:29:35;102448.16;;;11.22;59.98
61337;BME280;47212;41.326;2.104;2023-01-10T22:34:49;102456.09;;;11.24;59.54
61337;BME280;47212;41.326;2.104;2023-01-10T22:39:56;102442.69;;;11.22;59.88
61337;BME280;47212;41.326;2.104;2023-01-10T22:45:01;102429.28;;;11.21;60.22
61337;BME280;47212;41.326;2.104;2023-01-10T22:50:08;102442.31;;;11.18;60.70
61337;BME280;47212;41.326;2.104;2023-01-10T22:55:16;102439.81;;;11.17;60.28
61337;BME280;47212;41.326;2.104;2023-01-10T23:00:24;102442.59;;;11.10;60.33
61337;BME280;47212;41.326;2.104;2023-01-10T23:05:27;102450.00;;;11.03;60.35
61337;BME280;47212;41.326;2.104;2023-01-10T23:10:33;102444.63;;;10.97;60.29
61337;BME280;47212;41.326;2.104;2023-01-10T23:16:11;102447.63;;;10.89;61.86
61337;BME280;47212;41.326;2.104;2023-01-10T23:21:29;102438.06;;;10.79;61.07
61337;BME280;47212;41.326;2.104;2023-01-10T23:26:34;102428.06;;;10.73;60.75
61337;BME280;47212;41.326;2.104;2023-01-10T23:31:39;102420.94;;;10.72;61.00
61337;BME280;47212;41.326;2.104;2023-01-10T23:36:48;102417.59;;;10.70;60.52
61337;BME280;47212;41.326;2.104;2023-01-10T23:41:52;102409.66;;;10.69;60.28
61337;BME280;47212;41.326;2.104;2023-01-10T23:47:07;102398.75;;;10.69;60.35
61337;BME280;47212;41.326;2.104;2023-01-10T23:52:12;102395.66;;;10.65;60.40
61337;BME280;47212;41.326;2.104;2023-01-10T23:57:18;102386.72;;;10.58;60.26
